Saint George, Virginia
Current Conditions -  °F | °C
As of 5:53 PM on Wednesday 22 Oct 2014 (Local Time) from KCHO Reporting Station
Overcast Overcast  
Wind Chill: 55°   Ceiling: 6500
Heat Index: 55°   Visibility: 10mi
Dew Point: 43°   Wind: 10mph
Humidity: 64%   Direction: 340°NNW
Pressure: 29.99"   Gusts: 18mph
Location:  38.2663°N, 78.5808°W
Report Text: KCHO 222153Z 34009G16KT 300V360 10SM SCT032 OVC065 13/06 A2999 RMK AO2 SLP153 T01280061
Loading
Personal Weather Stations






























Interactive Weather Map
Tropical Storm Tracking
New forecast layout! Learn more

10-Day Weather Forecast

Advertisements
Track Severe Weather on mobile